Time;durP1;ratioP1;P1;durP2;ratioP2;P2;SDS_P1;SDS_P2;PMS_P1;PMS_P2;Temp;Humidity;BMP_temperature;BMP_pressure;BME280_temperature;BME280_humidity;BME280_pressure;Samples;Min_cycle;Max_cycle;Signal;HPM_P1;HPM_P2
2022/10/26 00:01:27;;;;;;;21.58;12.43;;;;;;;;;;5026838;28;20042;-81
2022/10/26 00:03:54;;;;;;;21.40;12.90;;;;;;;;;;5016676;28;20057;-81
2022/10/26 00:06:23;;;;;;;22.73;12.68;;;;;;;;;;5023008;28;20037;-81
2022/10/26 00:08:50;;;;;;;23.83;11.90;;;;;;;;;;5030731;28;20053;-81
2022/10/26 00:11:17;;;;;;;22.20;12.52;;;;;;;;;;5022348;28;20049;-81
2022/10/26 00:13:43;;;;;;;18.80;11.35;;;;;;;;;;5034947;28;20052;-81
2022/10/26 00:16:11;;;;;;;25.00;13.70;;;;;;;;;;5035337;28;20396;-81
2022/10/26 00:18:37;;;;;;;23.13;12.35;;;;;;;;;;5035027;28;20042;-81
2022/10/26 00:21:04;;;;;;;23.55;12.57;;;;;;;;;;5035112;28;20038;-81
2022/10/26 00:23:30;;;;;;;20.83;12.23;;;;;;;;;;5025821;28;20125;-81
2022/10/26 00:25:56;;;;;;;19.48;12.70;;;;;;;;;;5034519;28;20053;-81
2022/10/26 00:28:22;;;;;;;22.60;11.95;;;;;;;;;;5029553;28;20069;-81
2022/10/26 00:30:48;;;;;;;22.52;12.70;;;;;;;;;;5015095;28;20497;-81
2022/10/26 00:33:14;;;;;;;24.48;12.38;;;;;;;;;;5027845;28;20045;-81
2022/10/26 00:35:40;;;;;;;25.25;12.82;;;;;;;;;;5015680;28;20050;-81
2022/10/26 00:38:07;;;;;;;20.95;12.27;;;;;;;;;;5030779;28;20096;-81
2022/10/26 00:40:33;;;;;;;21.45;12.18;;;;;;;;;;5024202;28;20477;-81
2022/10/26 00:43:00;;;;;;;19.80;12.02;;;;;;;;;;5042649;28;20047;-81
2022/10/26 00:45:27;;;;;;;20.83;12.88;;;;;;;;;;5049656;28;20052;-81
2022/10/26 00:47:58;;;;;;;20.33;12.10;;;;;;;;;;5053050;28;20045;-81
2022/10/26 00:50:32;;;;;;;21.30;11.57;;;;;;;;;;5020723;28;20049;-81
2022/10/26 00:53:02;;;;;;;20.88;12.10;;;;;;;;;;5024057;28;20046;-81
2022/10/26 00:55:30;;;;;;;22.02;11.88;;;;;;;;;;5034598;28;20428;-81
2022/10/26 00:57:56;;;;;;;22.05;11.55;;;;;;;;;;5034160;28;20046;-81
2022/10/26 01:00:22;;;;;;;20.58;12.00;;;;;;;;;;5028750;28;20504;-81
2022/10/26 01:02:49;;;;;;;22.55;11.40;;;;;;;;;;5033918;28;20042;-81
2022/10/26 01:05:16;;;;;;;19.33;11.40;;;;;;;;;;5033133;28;20049;-81
2022/10/26 01:07:43;;;;;;;19.65;11.75;;;;;;;;;;5033687;28;20038;-81
2022/10/26 01:10:10;;;;;;;18.30;10.90;;;;;;;;;;5021394;28;20058;-81
2022/10/26 01:12:37;;;;;;;16.95;10.73;;;;;;;;;;5054139;28;20413;-81
2022/10/26 01:15:03;;;;;;;17.77;11.18;;;;;;;;;;5025787;28;20041;-81
2022/10/26 01:17:41;;;;;;;18.27;11.57;;;;;;;;;;5033933;28;20045;-81
2022/10/26 01:20:26;;;;;;;22.25;11.18;;;;;;;;;;5033976;28;20075;-81
2022/10/26 01:22:52;;;;;;;23.23;11.45;;;;;;;;;;5050470;28;20060;-81
2022/10/26 01:25:41;;;;;;;19.13;11.23;;;;;;;;;;5033430;28;20034;-81
2022/10/26 01:28:13;;;;;;;20.33;10.85;;;;;;;;;;5033985;28;20446;-81
2022/10/26 01:30:40;;;;;;;19.63;11.43;;;;;;;;;;5033615;28;20051;-81
2022/10/26 01:33:06;;;;;;;20.23;12.02;;;;;;;;;;5033711;28;20045;-81
2022/10/26 01:35:35;;;;;;;17.77;10.63;;;;;;;;;;5033782;28;20190;-81
2022/10/26 01:38:06;;;;;;;17.90;10.88;;;;;;;;;;5033613;28;20518;-81
2022/10/26 01:40:46;;;;;;;17.63;10.93;;;;;;;;;;5032461;28;20045;-81
2022/10/26 01:43:13;;;;;;;18.65;11.45;;;;;;;;;;5015001;28;20076;-81
2022/10/26 01:45:41;;;;;;;16.67;10.48;;;;;;;;;;5013676;28;20046;-81
2022/10/26 01:48:09;;;;;;;16.73;11.10;;;;;;;;;;5033528;28;20042;-81
2022/10/26 01:50:35;;;;;;;19.83;11.50;;;;;;;;;;5033418;28;20073;-81
2022/10/26 01:53:01;;;;;;;17.25;10.52;;;;;;;;;;5033434;28;20099;-81
2022/10/26 01:55:42;;;;;;;18.65;11.20;;;;;;;;;;5033534;28;20037;-81
2022/10/26 01:58:14;;;;;;;15.43;10.43;;;;;;;;;;5033459;28;20045;-81
2022/10/26 02:00:45;;;;;;;18.40;11.00;;;;;;;;;;5031888;28;20041;-81
2022/10/26 02:03:22;;;;;;;18.95;10.60;;;;;;;;;;5044408;28;20038;-81
2022/10/26 02:05:51;;;;;;;15.55;9.98;;;;;;;;;;5029318;28;20046;-81
2022/10/26 02:08:29;;;;;;;18.35;10.57;;;;;;;;;;5020640;28;20038;-81
2022/10/26 02:11:04;;;;;;;14.93;9.88;;;;;;;;;;5032511;28;20049;-81
2022/10/26 02:13:41;;;;;;;16.17;9.90;;;;;;;;;;5024626;28;20394;-81
2022/10/26 02:16:13;;;;;;;15.30;9.80;;;;;;;;;;5019350;28;20045;-81
2022/10/26 02:18:54;;;;;;;17.20;10.45;;;;;;;;;;5032810;28;20041;-81
2022/10/26 02:21:24;;;;;;;20.30;10.68;;;;;;;;;;5034094;28;20073;-81
2022/10/26 02:23:51;;;;;;;16.88;10.38;;;;;;;;;;5037357;28;20041;-81
2022/10/26 02:26:19;;;;;;;18.88;10.50;;;;;;;;;;5037054;28;20116;-81
2022/10/26 02:28:48;;;;;;;20.88;11.07;;;;;;;;;;5037240;28;20098;-81
2022/10/26 02:31:14;;;;;;;16.92;10.40;;;;;;;;;;5031892;28;20122;-81
2022/10/26 02:33:43;;;;;;;15.15;9.90;;;;;;;;;;5025761;28;20038;-81
2022/10/26 02:36:12;;;;;;;16.90;10.07;;;;;;;;;;5036251;28;20103;-81
2022/10/26 02:38:39;;;;;;;14.65;9.43;;;;;;;;;;5017351;28;20076;-81
2022/10/26 02:41:06;;;;;;;17.23;9.98;;;;;;;;;;5036152;28;20038;-81
2022/10/26 02:43:35;;;;;;;14.95;9.85;;;;;;;;;;5036952;28;20103;-81
2022/10/26 02:46:05;;;;;;;15.38;9.73;;;;;;;;;;5034084;28;20493;-80
2022/10/26 02:48:31;;;;;;;13.73;9.88;;;;;;;;;;5019218;28;20137;-81
2022/10/26 02:51:03;;;;;;;14.90;9.77;;;;;;;;;;5036314;28;20073;-81
2022/10/26 02:53:34;;;;;;;20.20;10.07;;;;;;;;;;5036636;28;20050;-81
2022/10/26 02:56:05;;;;;;;13.88;9.30;;;;;;;;;;5048213;28;20099;-81
2022/10/26 02:58:32;;;;;;;15.63;9.95;;;;;;;;;;5056574;28;20045;-81
2022/10/26 03:00:59;;;;;;;16.35;10.50;;;;;;;;;;5025423;28;20045;-81
2022/10/26 03:03:25;;;;;;;18.35;10.40;;;;;;;;;;5036321;28;20053;-81
2022/10/26 03:05:51;;;;;;;19.08;10.52;;;;;;;;;;5034995;28;20045;-81
2022/10/26 03:08:17;;;;;;;13.77;9.38;;;;;;;;;;5018167;28;20050;-81
2022/10/26 03:10:44;;;;;;;19.13;12.07;;;;;;;;;;5067883;28;20049;-81
2022/10/26 03:13:12;;;;;;;45.58;24.27;;;;;;;;;;5035898;28;20037;-81
2022/10/26 03:15:38;;;;;;;47.38;27.73;;;;;;;;;;5034573;28;20053;-81
2022/10/26 03:18:04;;;;;;;25.02;16.08;;;;;;;;;;5054992;28;20087;-81
2022/10/26 03:20:30;;;;;;;23.85;15.43;;;;;;;;;;5053686;28;20095;-81
2022/10/26 03:22:57;;;;;;;20.88;14.18;;;;;;;;;;5036145;28;20099;-81
2022/10/26 03:25:23;;;;;;;21.25;13.25;;;;;;;;;;5034373;28;20053;-80
2022/10/26 03:27:56;;;;;;;22.38;14.25;;;;;;;;;;5035850;28;20190;-81
2022/10/26 03:30:22;;;;;;;24.15;14.00;;;;;;;;;;5025666;28;20100;-81
2022/10/26 03:32:48;;;;;;;21.75;13.32;;;;;;;;;;5016412;28;20377;-81
2022/10/26 03:35:14;;;;;;;19.30;12.40;;;;;;;;;;5035966;28;20056;-81
2022/10/26 03:37:40;;;;;;;20.77;12.65;;;;;;;;;;5031266;28;20074;-81
2022/10/26 03:40:06;;;;;;;19.08;12.60;;;;;;;;;;5016043;28;20046;-81
2022/10/26 03:42:36;;;;;;;22.60;12.93;;;;;;;;;;5047927;28;20050;-81
2022/10/26 03:45:02;;;;;;;20.52;13.20;;;;;;;;;;5014741;28;20049;-81
2022/10/26 03:47:28;;;;;;;23.20;13.48;;;;;;;;;;5027333;28;20041;-81
2022/10/26 03:49:54;;;;;;;23.08;13.98;;;;;;;;;;5024815;28;20048;-81
2022/10/26 03:52:22;;;;;;;20.10;12.82;;;;;;;;;;5035482;28;20088;-81
2022/10/26 03:54:49;;;;;;;21.67;13.57;;;;;;;;;;5017478;28;20049;-81
2022/10/26 03:57:15;;;;;;;24.55;14.75;;;;;;;;;;5029320;28;20081;-81
2022/10/26 03:59:41;;;;;;;23.00;14.95;;;;;;;;;;5035470;28;20054;-81
2022/10/26 04:02:07;;;;;;;24.40;15.05;;;;;;;;;;5035409;28;20045;-81
2022/10/26 04:04:33;;;;;;;22.80;15.18;;;;;;;;;;5054654;28;20145;-81
2022/10/26 04:06:59;;;;;;;24.88;15.27;;;;;;;;;;5042052;28;20038;-80
2022/10/26 04:09:25;;;;;;;26.75;16.33;;;;;;;;;;5026070;28;20057;-81
2022/10/26 04:11:51;;;;;;;23.85;15.43;;;;;;;;;;5035816;28;20057;-81
2022/10/26 04:14:17;;;;;;;26.70;15.45;;;;;;;;;;5036288;28;20049;-81
2022/10/26 04:16:43;;;;;;;23.52;15.13;;;;;;;;;;5035008;28;20172;-81
2022/10/26 04:19:09;;;;;;;23.45;15.43;;;;;;;;;;5016418;28;20551;-81
2022/10/26 04:21:36;;;;;;;26.17;15.10;;;;;;;;;;5023487;28;20052;-81
2022/10/26 04:24:02;;;;;;;21.65;14.05;;;;;;;;;;5035623;28;20045;-81
2022/10/26 04:26:28;;;;;;;24.50;14.73;;;;;;;;;;5034857;28;20044;-81
2022/10/26 04:28:54;;;;;;;26.30;15.65;;;;;;;;;;5034929;28;20042;-81
2022/10/26 04:31:20;;;;;;;22.08;14.68;;;;;;;;;;5030448;28;20068;-81
2022/10/26 04:33:46;;;;;;;19.20;14.05;;;;;;;;;;5034524;28;20045;-81
2022/10/26 04:36:12;;;;;;;24.23;14.65;;;;;;;;;;5027350;28;20057;-81
2022/10/26 04:38:38;;;;;;;28.30;15.30;;;;;;;;;;5017190;28;20126;-82
2022/10/26 04:41:04;;;;;;;22.52;14.45;;;;;;;;;;5014703;28;20132;-81
2022/10/26 04:43:30;;;;;;;23.17;14.75;;;;;;;;;;5013888;28;20083;-81
2022/10/26 04:45:57;;;;;;;25.15;14.90;;;;;;;;;;5019976;28;20120;-81
2022/10/26 04:48:23;;;;;;;26.63;15.13;;;;;;;;;;5032459;28;20120;-81
2022/10/26 04:50:49;;;;;;;20.55;14.52;;;;;;;;;;5017748;28;20054;-81
2022/10/26 04:53:16;;;;;;;22.90;15.45;;;;;;;;;;5014397;28;20045;-81
2022/10/26 04:55:42;;;;;;;24.77;15.63;;;;;;;;;;5014348;28;20407;-81
2022/10/26 04:58:08;;;;;;;23.98;15.75;;;;;;;;;;5014673;28;20042;-81
2022/10/26 05:00:34;;;;;;;23.98;15.38;;;;;;;;;;5015185;28;20122;-81
2022/10/26 05:03:01;;;;;;;22.13;14.68;;;;;;;;;;5034301;28;20037;-81
2022/10/26 05:05:27;;;;;;;27.45;17.75;;;;;;;;;;5029643;28;20388;-81
2022/10/26 05:07:54;;;;;;;24.25;15.18;;;;;;;;;;5025893;28;20056;-81
2022/10/26 05:10:20;;;;;;;23.08;14.73;;;;;;;;;;5016417;28;20061;-81
2022/10/26 05:13:05;;;;;;;22.50;15.68;;;;;;;;;;5018764;28;20053;-81
2022/10/26 05:15:31;;;;;;;24.50;16.40;;;;;;;;;;5020931;28;20073;-81
2022/10/26 05:17:58;;;;;;;23.58;15.07;;;;;;;;;;5033647;28;20045;-81
2022/10/26 05:20:30;;;;;;;24.67;15.57;;;;;;;;;;5031894;28;20041;-81
2022/10/26 05:22:57;;;;;;;23.70;15.07;;;;;;;;;;5033398;28;20496;-81
2022/10/26 05:25:23;;;;;;;24.00;15.50;;;;;;;;;;5033593;28;20493;-81
2022/10/26 05:27:49;;;;;;;26.25;16.20;;;;;;;;;;5033653;28;20485;-81
2022/10/26 05:30:15;;;;;;;25.20;16.15;;;;;;;;;;5032502;28;20103;-81
2022/10/26 05:32:41;;;;;;;25.65;15.30;;;;;;;;;;5033389;28;20488;-81
2022/10/26 05:35:07;;;;;;;23.27;15.50;;;;;;;;;;5033704;28;20064;-81
2022/10/26 05:37:33;;;;;;;25.17;15.55;;;;;;;;;;5033200;28;20041;-81
2022/10/26 05:39:59;;;;;;;24.60;15.00;;;;;;;;;;5033391;28;20564;-81
2022/10/26 05:42:25;;;;;;;26.35;15.93;;;;;;;;;;5032430;28;20183;-81
2022/10/26 05:44:51;;;;;;;23.40;15.77;;;;;;;;;;5017833;28;20060;-81
2022/10/26 05:47:17;;;;;;;25.48;15.75;;;;;;;;;;5033011;28;20397;-82
2022/10/26 05:49:43;;;;;;;26.10;15.50;;;;;;;;;;5031107;28;20046;-81
2022/10/26 05:52:09;;;;;;;24.15;16.05;;;;;;;;;;5015805;28;20144;-81
2022/10/26 05:54:35;;;;;;;26.75;15.43;;;;;;;;;;5033239;28;20507;-81
2022/10/26 05:57:02;;;;;;;23.83;16.25;;;;;;;;;;5033519;28;20045;-81
2022/10/26 05:59:29;;;;;;;24.70;15.13;;;;;;;;;;5019940;28;20048;-81
2022/10/26 06:02:09;;;;;;;23.13;15.60;;;;;;;;;;5026145;28;20562;-85
2022/10/26 06:04:46;;;;;;;25.80;15.77;;;;;;;;;;5033396;28;20084;-81
2022/10/26 06:07:22;;;;;;;23.73;14.75;;;;;;;;;;5016525;28;20124;-81
2022/10/26 06:09:48;;;;;;;21.63;15.10;;;;;;;;;;5032004;28;20404;-82
2022/10/26 06:12:14;;;;;;;25.30;15.60;;;;;;;;;;5032042;28;20045;-80
2022/10/26 06:14:41;;;;;;;29.15;15.70;;;;;;;;;;5033087;28;20120;-82
2022/10/26 06:17:13;;;;;;;23.38;15.07;;;;;;;;;;5033252;28;20045;-82
2022/10/26 06:19:39;;;;;;;24.50;15.18;;;;;;;;;;5033208;28;20045;-83
2022/10/26 06:22:14;;;;;;;23.77;15.55;;;;;;;;;;5033068;28;20045;-82
2022/10/26 06:24:48;;;;;;;25.52;15.45;;;;;;;;;;5032913;28;20518;-83
2022/10/26 06:27:20;;;;;;;22.40;15.35;;;;;;;;;;5027484;28;20048;-82
2022/10/26 06:29:53;;;;;;;22.48;14.73;;;;;;;;;;5013196;28;20046;-82
2022/10/26 06:32:20;;;;;;;23.83;15.05;;;;;;;;;;5061694;28;20049;-81
2022/10/26 06:34:47;;;;;;;24.30;15.07;;;;;;;;;;5050895;28;20045;-82
2022/10/26 06:37:13;;;;;;;26.08;15.45;;;;;;;;;;5017711;28;20049;-82
2022/10/26 06:39:42;;;;;;;25.77;15.20;;;;;;;;;;5023136;28;20060;-83
2022/10/26 06:42:09;;;;;;;23.17;14.85;;;;;;;;;;5048653;28;20123;-82
2022/10/26 06:44:35;;;;;;;24.73;15.25;;;;;;;;;;5032924;28;20046;-82
2022/10/26 06:47:12;;;;;;;22.75;14.77;;;;;;;;;;5033175;28;20053;-82
2022/10/26 06:49:40;;;;;;;27.23;15.15;;;;;;;;;;5035812;28;20121;-82
2022/10/26 06:52:06;;;;;;;27.10;16.35;;;;;;;;;;5027709;28;20096;-82
2022/10/26 06:54:39;;;;;;;23.42;15.38;;;;;;;;;;5022626;28;20073;-82
2022/10/26 06:57:08;;;;;;;25.23;15.75;;;;;;;;;;5013385;28;20038;-83
2022/10/26 06:59:39;;;;;;;23.48;14.40;;;;;;;;;;5013784;28;20038;-82
2022/10/26 07:02:05;;;;;;;21.08;13.65;;;;;;;;;;5012757;28;20428;-82
2022/10/26 07:04:31;;;;;;;21.55;13.85;;;;;;;;;;5018469;28;20475;-83
2022/10/26 07:06:57;;;;;;;23.23;14.63;;;;;;;;;;5024704;28;20081;-83
2022/10/26 07:09:23;;;;;;;22.80;13.90;;;;;;;;;;5030849;28;20443;-84
2022/10/26 07:11:50;;;;;;;21.48;13.82;;;;;;;;;;5035671;28;20049;-83
2022/10/26 07:14:16;;;;;;;19.48;13.93;;;;;;;;;;5031906;28;20145;-84
2022/10/26 07:16:42;;;;;;;22.65;14.43;;;;;;;;;;5020777;28;20504;-84
2022/10/26 07:19:08;;;;;;;22.77;13.95;;;;;;;;;;5031256;28;20124;-85
2022/10/26 07:21:34;;;;;;;21.77;13.93;;;;;;;;;;5026101;28;20134;-84
2022/10/26 07:24:00;;;;;;;21.45;13.27;;;;;;;;;;5036442;28;20037;-85
2022/10/26 07:26:26;;;;;;;20.08;12.77;;;;;;;;;;5027492;28;20053;-83
2022/10/26 07:28:52;;;;;;;22.10;13.02;;;;;;;;;;5033320;28;20103;-84
2022/10/26 07:31:18;;;;;;;18.73;12.82;;;;;;;;;;5036701;28;20072;-83
2022/10/26 07:33:45;;;;;;;17.05;13.02;;;;;;;;;;5018960;28;20370;-83
2022/10/26 07:36:11;;;;;;;19.35;12.23;;;;;;;;;;5026551;28;20056;-83
2022/10/26 07:38:38;;;;;;;20.23;12.50;;;;;;;;;;5037493;28;20088;-85
2022/10/26 07:41:05;;;;;;;19.73;12.75;;;;;;;;;;5035916;28;20084;-84
2022/10/26 07:43:31;;;;;;;20.60;12.43;;;;;;;;;;5031978;28;20545;-84
2022/10/26 07:45:57;;;;;;;18.88;12.32;;;;;;;;;;5029063;28;20038;-84
2022/10/26 07:48:23;;;;;;;16.85;12.00;;;;;;;;;;5027735;28;20135;-84
2022/10/26 07:50:49;;;;;;;16.75;11.70;;;;;;;;;;5035880;28;20128;-84
2022/10/26 07:53:15;;;;;;;18.88;12.13;;;;;;;;;;5037138;28;20052;-84
2022/10/26 07:55:41;;;;;;;15.38;10.73;;;;;;;;;;5035289;28;20048;-82
2022/10/26 07:58:07;;;;;;;17.95;11.70;;;;;;;;;;5032679;28;20046;-82
2022/10/26 08:00:33;;;;;;;17.98;11.48;;;;;;;;;;5034515;28;20065;-83
2022/10/26 08:03:01;;;;;;;19.55;11.32;;;;;;;;;;5035355;28;20042;-82
2022/10/26 08:05:27;;;;;;;16.60;10.88;;;;;;;;;;5029838;28;20046;-82
2022/10/26 08:07:53;;;;;;;16.65;11.18;;;;;;;;;;5029960;28;20485;-83
2022/10/26 08:10:19;;;;;;;14.48;10.25;;;;;;;;;;5033629;28;20060;-82
2022/10/26 08:12:45;;;;;;;19.10;10.55;;;;;;;;;;5030677;28;20132;-83
2022/10/26 08:15:12;;;;;;;15.35;10.60;;;;;;;;;;5031528;28;20124;-83
2022/10/26 08:17:38;;;;;;;18.67;10.55;;;;;;;;;;5035910;28;20046;-83
2022/10/26 08:20:04;;;;;;;14.68;10.23;;;;;;;;;;5037009;28;20059;-83
2022/10/26 08:22:31;;;;;;;16.05;10.82;;;;;;;;;;5036526;28;20045;-80
2022/10/26 08:24:57;;;;;;;15.07;9.43;;;;;;;;;;5032723;28;20440;-80
2022/10/26 08:27:23;;;;;;;16.02;10.10;;;;;;;;;;5033844;28;20053;-80
2022/10/26 08:29:49;;;;;;;16.55;9.32;;;;;;;;;;5027277;28;20433;-80
2022/10/26 08:32:15;;;;;;;14.98;9.82;;;;;;;;;;5029070;28;20045;-80
2022/10/26 08:34:41;;;;;;;13.60;8.45;;;;;;;;;;5035553;28;20064;-80
2022/10/26 08:37:07;;;;;;;12.60;8.77;;;;;;;;;;5034047;28;20412;-80
2022/10/26 08:39:33;;;;;;;14.73;8.57;;;;;;;;;;5030878;28;20046;-80
2022/10/26 08:42:06;;;;;;;12.02;8.50;;;;;;;;;;5014045;28;20045;-80
2022/10/26 08:44:32;;;;;;;11.25;8.38;;;;;;;;;;5016103;28;20046;-80
2022/10/26 08:47:02;;;;;;;11.13;8.60;;;;;;;;;;5028328;28;20043;-80
2022/10/26 08:49:49;;;;;;;13.25;8.60;;;;;;;;;;5034916;28;20046;-80
2022/10/26 08:52:15;;;;;;;;;;;;;;;;;;5034501;28;20077;-80
2022/10/26 08:54:44;;;;;;;11.32;7.72;;;;;;;;;;5045074;28;19959;-80
2022/10/26 08:57:16;;;;;;;10.75;8.13;;;;;;;;;;5046124;28;20042;-78
2022/10/26 09:00:18;;;;;;;10.90;7.15;;;;;;;;;;5027015;28;20042;-78
2022/10/26 09:02:44;;;;;;;11.68;7.28;;;;;;;;;;5006500;28;20538;-79
2022/10/26 09:05:18;;;;;;;12.90;8.05;;;;;;;;;;5028595;28;20053;-81
2022/10/26 09:07:54;;;;;;;9.63;6.75;;;;;;;;;;5032231;28;20042;-79
2022/10/26 09:10:32;;;;;;;11.88;7.03;;;;;;;;;;5014401;28;20057;-84
2022/10/26 09:13:03;;;;;;;10.88;7.10;;;;;;;;;;5012596;28;20084;-83
2022/10/26 09:15:31;;;;;;;9.15;6.28;;;;;;;;;;5012715;28;20104;-80
2022/10/26 09:17:57;;;;;;;9.00;6.03;;;;;;;;;;5011793;28;20108;-79
2022/10/26 09:20:41;;;;;;;9.88;5.22;;;;;;;;;;5011823;28;20049;-80
2022/10/26 09:23:18;;;;;;;12.43;7.05;;;;;;;;;;5026686;28;20428;-80
2022/10/26 09:25:48;;;;;;;9.65;6.05;;;;;;;;;;4986939;28;20046;-80
2022/10/26 09:28:16;;;;;;;10.95;6.45;;;;;;;;;;4992207;28;20038;-80
2022/10/26 09:30:46;;;;;;;9.98;5.85;;;;;;;;;;5007080;28;20052;-80
2022/10/26 09:33:14;;;;;;;9.13;5.43;;;;;;;;;;5011440;28;20053;-80
2022/10/26 09:35:50;;;;;;;6.85;5.15;;;;;;;;;;5008591;28;20046;-81
2022/10/26 09:38:16;;;;;;;;;;;;;;;;;;4992215;28;20042;-80
2022/10/26 09:40:49;;;;;;;10.07;4.85;;;;;;;;;;4982018;28;19929;-82
2022/10/26 09:43:20;;;;;;;7.30;4.88;;;;;;;;;;4992736;28;20129;-81
2022/10/26 09:45:48;;;;;;;8.13;4.60;;;;;;;;;;4983106;28;20125;-79
2022/10/26 09:48:19;;;;;;;7.35;5.15;;;;;;;;;;4976604;28;20053;-82
2022/10/26 09:50:47;;;;;;;6.57;4.63;;;;;;;;;;4977779;28;20078;-83
2022/10/26 09:53:14;;;;;;;8.68;5.05;;;;;;;;;;4994379;28;20049;-82
2022/10/26 09:55:44;;;;;;;6.82;4.85;;;;;;;;;;4993813;28;20050;-85
2022/10/26 09:58:13;;;;;;;6.47;4.57;;;;;;;;;;4986484;28;20050;-81
2022/10/26 10:00:41;;;;;;;11.13;5.43;;;;;;;;;;4978275;28;20494;-79
2022/10/26 10:03:18;;;;;;;7.75;5.03;;;;;;;;;;4989908;28;20054;-79
2022/10/26 10:05:44;;;;;;;7.82;5.13;;;;;;;;;;4992782;28;20049;-79
2022/10/26 10:08:10;;;;;;;7.32;5.00;;;;;;;;;;4994126;28;20377;-80
2022/10/26 10:10:37;;;;;;;8.20;4.45;;;;;;;;;;5032277;28;20062;-79
2022/10/26 10:13:16;;;;;;;7.38;4.80;;;;;;;;;;5017877;28;20054;-80
2022/10/26 10:15:51;;;;;;;10.32;4.78;;;;;;;;;;5032782;28;20408;-80
2022/10/26 10:18:21;;;;;;;9.18;5.07;;;;;;;;;;5033144;28;20049;-80
2022/10/26 10:20:52;;;;;;;10.20;4.65;;;;;;;;;;5017476;28;20501;-79
2022/10/26 10:23:37;;;;;;;9.00;5.30;;;;;;;;;;5013631;28;20046;-79
2022/10/26 10:26:05;;;;;;;7.47;4.78;;;;;;;;;;5031512;28;20506;-78
2022/10/26 10:28:32;;;;;;;6.32;4.53;;;;;;;;;;5032365;28;20091;-80
2022/10/26 10:31:02;;;;;;;8.45;4.70;;;;;;;;;;5019204;28;20034;-82
2022/10/26 10:33:35;;;;;;;8.25;4.90;;;;;;;;;;5016473;28;20042;-80
2022/10/26 10:36:10;;;;;;;7.65;4.85;;;;;;;;;;5023121;28;20053;-81
2022/10/26 10:38:37;;;;;;;7.60;4.88;;;;;;;;;;5029942;28;20111;-80
2022/10/26 10:41:06;;;;;;;8.23;4.63;;;;;;;;;;5033606;28;20042;-87
2022/10/26 10:43:32;;;;;;;7.13;4.55;;;;;;;;;;5038399;28;20053;-82
2022/10/26 10:45:58;;;;;;;8.52;4.60;;;;;;;;;;5037452;28;20045;-82
2022/10/26 10:48:28;;;;;;;6.00;4.07;;;;;;;;;;5014194;28;20121;-82
2022/10/26 10:50:59;;;;;;;6.60;4.30;;;;;;;;;;5034107;28;20099;-82
2022/10/26 10:53:25;;;;;;;7.22;4.35;;;;;;;;;;5042264;28;20041;-82
2022/10/26 10:56:08;;;;;;;9.32;4.13;;;;;;;;;;5027632;28;20053;-82
2022/10/26 10:58:55;;;;;;;6.10;4.05;;;;;;;;;;5038786;28;20081;-82
2022/10/26 11:01:22;;;;;;;8.23;3.88;;;;;;;;;;5020492;28;20053;-82
2022/10/26 11:03:51;;;;;;;7.40;4.25;;;;;;;;;;5026997;28;20403;-82
2022/10/26 11:06:27;;;;;;;6.15;3.88;;;;;;;;;;5033246;28;20091;-82
2022/10/26 11:08:53;;;;;;;;;;;;;;;;;;5038074;28;20065;-82
2022/10/26 11:11:22;;;;;;;6.93;4.05;;;;;;;;;;5037348;28;19921;-82
2022/10/26 11:13:50;;;;;;;6.05;4.43;;;;;;;;;;5036670;28;20439;-82
2022/10/26 11:16:20;;;;;;;6.18;3.88;;;;;;;;;;5017116;28;20049;-82
2022/10/26 11:18:50;;;;;;;5.43;4.00;;;;;;;;;;5017023;28;20089;-82
2022/10/26 11:21:22;;;;;;;6.25;3.42;;;;;;;;;;5036831;28;20046;-82
2022/10/26 11:24:10;;;;;;;5.22;3.47;;;;;;;;;;5036035;28;20049;-82
2022/10/26 11:26:45;;;;;;;8.82;3.83;;;;;;;;;;5015620;28;20053;-82
2022/10/26 11:29:29;;;;;;;11.37;4.50;;;;;;;;;;5033628;28;20481;-82
2022/10/26 11:32:15;;;;;;;5.57;4.13;;;;;;;;;;5025973;28;20579;-82
2022/10/26 11:34:41;;;;;;;6.03;3.85;;;;;;;;;;5031233;28;20448;-82
2022/10/26 11:37:13;;;;;;;6.60;4.05;;;;;;;;;;5017326;28;20049;-82
2022/10/26 11:39:46;;;;;;;7.35;4.07;;;;;;;;;;5023401;28;20485;-82
2022/10/26 11:42:26;;;;;;;11.70;4.03;;;;;;;;;;5036518;28;20120;-82
2022/10/26 11:44:59;;;;;;;8.38;4.45;;;;;;;;;;5036036;28;20049;-82
2022/10/26 11:47:34;;;;;;;7.63;4.22;;;;;;;;;;5036252;28;20400;-82
2022/10/26 11:50:03;;;;;;;8.63;4.43;;;;;;;;;;5036631;28;20077;-82
2022/10/26 11:52:56;;;;;;;6.65;4.18;;;;;;;;;;5035824;28;20041;-82
2022/10/26 11:55:22;;;;;;;6.45;4.43;;;;;;;;;;5034647;28;20155;-82
2022/10/26 11:57:49;;;;;;;7.13;4.43;;;;;;;;;;5036369;28;20100;-82
2022/10/26 12:00:17;;;;;;;9.63;4.85;;;;;;;;;;5022798;28;20053;-82
2022/10/26 12:02:56;;;;;;;11.10;4.57;;;;;;;;;;5031778;28;20088;-82
2022/10/26 12:05:24;;;;;;;7.68;4.70;;;;;;;;;;5034096;28;20049;-82
2022/10/26 12:07:54;;;;;;;7.97;5.05;;;;;;;;;;5035853;28;20048;-81
2022/10/26 12:10:23;;;;;;;10.13;5.13;;;;;;;;;;5034232;28;20060;-82
2022/10/26 12:13:08;;;;;;;8.30;5.00;;;;;;;;;;5032789;28;20057;-82
2022/10/26 12:15:57;;;;;;;7.05;5.07;;;;;;;;;;5029655;28;20053;-82
2022/10/26 12:18:32;;;;;;;7.28;5.28;;;;;;;;;;5035927;28;20053;-82
2022/10/26 12:21:03;;;;;;;11.13;5.30;;;;;;;;;;5033863;28;20130;-82
2022/10/26 12:23:34;;;;;;;8.80;5.05;;;;;;;;;;5016094;28;20405;-82
2022/10/26 12:26:19;;;;;;;8.45;5.45;;;;;;;;;;5032946;28;20045;-82
2022/10/26 12:28:45;;;;;;;8.27;4.65;;;;;;;;;;5021756;28;20432;-82
2022/10/26 12:31:34;;;;;;;7.97;4.80;;;;;;;;;;5034056;28;20546;-82
2022/10/26 12:34:00;;;;;;;9.52;5.43;;;;;;;;;;5023414;28;20564;-82
2022/10/26 12:36:45;;;;;;;10.35;5.60;;;;;;;;;;5031972;28;20060;-82
2022/10/26 12:39:29;;;;;;;9.48;5.80;;;;;;;;;;5015319;28;20046;-82
2022/10/26 12:42:09;;;;;;;10.20;5.80;;;;;;;;;;5011516;28;20042;-82
2022/10/26 12:44:35;;;;;;;8.93;5.97;;;;;;;;;;5035319;28;20041;-82
2022/10/26 12:47:01;;;;;;;10.70;5.63;;;;;;;;;;5035186;28;20072;-82
2022/10/26 12:49:46;;;;;;;7.85;5.22;;;;;;;;;;5029408;28;20041;-82
2022/10/26 12:52:20;;;;;;;11.65;6.05;;;;;;;;;;5031415;28;20053;-82
2022/10/26 12:54:54;;;;;;;10.20;6.20;;;;;;;;;;5033133;28;21640;-82
2022/10/26 12:57:26;;;;;;;11.13;6.00;;;;;;;;;;5033731;28;20500;-82
2022/10/26 12:59:55;;;;;;;10.80;6.07;;;;;;;;;;5035113;28;20472;-82
2022/10/26 13:02:21;;;;;;;11.27;5.95;;;;;;;;;;5035173;28;20077;-82
2022/10/26 13:04:59;;;;;;;10.45;6.05;;;;;;;;;;5034129;28;20053;-82
2022/10/26 13:07:27;;;;;;;11.43;5.75;;;;;;;;;;5034572;28;20069;-82
2022/10/26 13:09:59;;;;;;;9.57;5.80;;;;;;;;;;5034850;28;20108;-82
2022/10/26 13:12:26;;;;;;;10.35;6.18;;;;;;;;;;5034250;28;20512;-82
2022/10/26 13:14:57;;;;;;;9.50;5.93;;;;;;;;;;5034448;28;20396;-82
2022/10/26 13:17:25;;;;;;;12.73;6.85;;;;;;;;;;5034696;28;20045;-82
2022/10/26 13:19:55;;;;;;;11.38;6.72;;;;;;;;;;5027737;28;20050;-82
2022/10/26 13:22:21;;;;;;;11.60;6.50;;;;;;;;;;5025986;28;20098;-82
2022/10/26 13:25:01;;;;;;;10.05;6.30;;;;;;;;;;5033841;28;20095;-82
2022/10/26 13:27:33;;;;;;;11.73;5.93;;;;;;;;;;5034512;28;20471;-82
2022/10/26 13:30:02;;;;;;;9.40;6.72;;;;;;;;;;5034519;28;20090;-82
2022/10/26 13:32:48;;;;;;;7.88;6.22;;;;;;;;;;5034546;28;20037;-82
2022/10/26 13:35:15;;;;;;;11.43;6.32;;;;;;;;;;5034475;28;20045;-82
2022/10/26 13:37:43;;;;;;;9.90;6.30;;;;;;;;;;5034167;28;20038;-82
2022/10/26 13:40:17;;;;;;;12.18;6.40;;;;;;;;;;5033109;28;20042;-82
2022/10/26 13:42:48;;;;;;;9.43;5.95;;;;;;;;;;5034351;28;20102;-82
2022/10/26 13:45:17;;;;;;;11.65;6.25;;;;;;;;;;5034166;28;20049;-82
2022/10/26 13:47:49;;;;;;;8.48;5.88;;;;;;;;;;5034161;28;20045;-82
2022/10/26 13:50:26;;;;;;;10.50;6.13;;;;;;;;;;5018337;28;20041;-82
2022/10/26 13:52:54;;;;;;;7.28;5.63;;;;;;;;;;4997121;28;20045;-82
2022/10/26 13:55:24;;;;;;;8.77;5.70;;;;;;;;;;5029273;28;20378;-82
2022/10/26 13:58:05;;;;;;;9.65;6.07;;;;;;;;;;5018365;28;20373;-82
2022/10/26 14:00:31;;;;;;;10.52;5.93;;;;;;;;;;5034386;28;20037;-82
2022/10/26 14:02:57;;;;;;;13.60;6.75;;;;;;;;;;5034763;28;20045;-82
2022/10/26 14:05:23;;;;;;;8.82;5.57;;;;;;;;;;5035306;28;20052;-82
2022/10/26 14:07:56;;;;;;;9.98;5.78;;;;;;;;;;5034247;28;20132;-82
2022/10/26 14:10:40;;;;;;;8.43;5.45;;;;;;;;;;5019070;28;20054;-82
2022/10/26 14:13:06;;;;;;;13.45;5.68;;;;;;;;;;5015175;28;20037;-82
2022/10/26 14:15:34;;;;;;;10.15;5.47;;;;;;;;;;5024876;28;20083;-82
2022/10/26 14:18:01;;;;;;;8.05;5.63;;;;;;;;;;5040019;28;20481;-82
2022/10/26 14:20:28;;;;;;;11.00;6.18;;;;;;;;;;5023866;28;20056;-82
2022/10/26 14:22:54;;;;;;;9.32;5.55;;;;;;;;;;5041244;28;20045;-82
2022/10/26 14:25:23;;;;;;;9.80;5.82;;;;;;;;;;5043735;28;20041;-82
2022/10/26 14:27:49;;;;;;;9.70;6.05;;;;;;;;;;5037030;28;20042;-81
2022/10/26 14:30:23;;;;;;;9.57;5.63;;;;;;;;;;5032049;28;20084;-81
2022/10/26 14:32:50;;;;;;;10.90;5.63;;;;;;;;;;5045578;28;20041;-82
2022/10/26 14:35:16;;;;;;;13.73;6.72;;;;;;;;;;5035046;28;20048;-84
2022/10/26 14:37:45;;;;;;;10.50;5.30;;;;;;;;;;5040830;28;20038;-81
2022/10/26 14:40:19;;;;;;;9.48;5.35;;;;;;;;;;5038930;28;20049;-81